sensor_id;sensor_type;location;lat;lon;timestamp;P1;durP1;ratioP1;P2;durP2;ratioP2
20423;SDS011;10371;49.042;8.002;2022-07-04T00:00:00;2.22;;;1.70;;
20423;SDS011;10371;49.042;8.002;2022-07-04T00:01:01;1.80;;;1.52;;
20423;SDS011;10371;49.042;8.002;2022-07-04T00:02:01;2.20;;;1.67;;
20423;SDS011;10371;49.042;8.002;2022-07-04T00:03:03;1.48;;;1.38;;
20423;SDS011;10371;49.042;8.002;2022-07-04T00:04:03;1.70;;;1.60;;
20423;SDS011;10371;49.042;8.002;2022-07-04T00:05:04;1.70;;;1.60;;
20423;SDS011;10371;49.042;8.002;2022-07-04T00:06:09;1.80;;;1.52;;
20423;SDS011;10371;49.042;8.002;2022-07-04T00:07:09;1.67;;;1.58;;
20423;SDS011;10371;49.042;8.002;2022-07-04T00:08:09;2.97;;;1.70;;
20423;SDS011;10371;49.042;8.002;2022-07-04T00:09:09;3.80;;;1.58;;
20423;SDS011;10371;49.042;8.002;2022-07-04T00:10:10;2.63;;;1.58;;
20423;SDS011;10371;49.042;8.002;2022-07-04T00:11:12;1.42;;;1.33;;
20423;SDS011;10371;49.042;8.002;2022-07-04T00:12:12;2.83;;;1.60;;
20423;SDS011;10371;49.042;8.002;2022-07-04T00:13:13;1.85;;;1.75;;
20423;SDS011;10371;49.042;8.002;2022-07-04T00:14:13;1.50;;;1.40;;
20423;SDS011;10371;49.042;8.002;2022-07-04T00:15:14;2.60;;;1.73;;
20423;SDS011;10371;49.042;8.002;2022-07-04T00:16:14;2.40;;;1.65;;
20423;SDS011;10371;49.042;8.002;2022-07-04T00:17:15;3.67;;;1.98;;
20423;SDS011;10371;49.042;8.002;2022-07-04T00:18:15;1.95;;;1.50;;
20423;SDS011;10371;49.042;8.002;2022-07-04T00:19:15;1.50;;;1.40;;
20423;SDS011;10371;49.042;8.002;2022-07-04T00:20:16;2.60;;;2.03;;
20423;SDS011;10371;49.042;8.002;2022-07-04T00:21:16;2.30;;;1.73;;
20423;SDS011;10371;49.042;8.002;2022-07-04T00:22:17;2.33;;;1.70;;
20423;SDS011;10371;49.042;8.002;2022-07-04T00:23:17;2.22;;;1.70;;
20423;SDS011;10371;49.042;8.002;2022-07-04T00:24:17;1.98;;;1.77;;
20423;SDS011;10371;49.042;8.002;2022-07-04T00:25:17;1.65;;;1.50;;
20423;SDS011;10371;49.042;8.002;2022-07-04T00:26:18;1.48;;;1.38;;
20423;SDS011;10371;49.042;8.002;2022-07-04T00:27:18;2.78;;;1.60;;
20423;SDS011;10371;49.042;8.002;2022-07-04T00:28:18;1.50;;;1.40;;
20423;SDS011;10371;49.042;8.002;2022-07-04T00:29:19;2.40;;;1.60;;
20423;SDS011;10371;49.042;8.002;2022-07-04T00:30:19;2.10;;;1.45;;
20423;SDS011;10371;49.042;8.002;2022-07-04T00:31:19;1.70;;;1.60;;
20423;SDS011;10371;49.042;8.002;2022-07-04T00:32:19;1.63;;;1.52;;
20423;SDS011;10371;49.042;8.002;2022-07-04T00:33:20;1.98;;;1.33;;
20423;SDS011;10371;49.042;8.002;2022-07-04T00:34:20;2.80;;;1.63;;
20423;SDS011;10371;49.042;8.002;2022-07-04T00:35:21;2.63;;;1.80;;
20423;SDS011;10371;49.042;8.002;2022-07-04T00:36:21;2.50;;;1.58;;
20423;SDS011;10371;49.042;8.002;2022-07-04T00:37:21;3.83;;;1.63;;
20423;SDS011;10371;49.042;8.002;2022-07-04T00:38:21;1.60;;;1.50;;
20423;SDS011;10371;49.042;8.002;2022-07-04T00:39:22;2.72;;;1.70;;
20423;SDS011;10371;49.042;8.002;2022-07-04T00:40:22;1.95;;;1.65;;
20423;SDS011;10371;49.042;8.002;2022-07-04T00:41:22;3.03;;;1.88;;
20423;SDS011;10371;49.042;8.002;2022-07-04T00:42:23;3.20;;;1.70;;
20423;SDS011;10371;49.042;8.002;2022-07-04T00:43:24;2.78;;;1.70;;
20423;SDS011;10371;49.042;8.002;2022-07-04T00:44:25;2.33;;;1.90;;
20423;SDS011;10371;49.042;8.002;2022-07-04T00:45:25;3.35;;;1.75;;
20423;SDS011;10371;49.042;8.002;2022-07-04T00:46:25;2.15;;;1.75;;
20423;SDS011;10371;49.042;8.002;2022-07-04T00:47:25;1.83;;;1.73;;
20423;SDS011;10371;49.042;8.002;2022-07-04T00:48:26;1.92;;;1.70;;
20423;SDS011;10371;49.042;8.002;2022-07-04T00:49:26;1.70;;;1.60;;
20423;SDS011;10371;49.042;8.002;2022-07-04T00:50:27;1.77;;;1.60;;
20423;SDS011;10371;49.042;8.002;2022-07-04T00:51:27;2.15;;;1.65;;
20423;SDS011;10371;49.042;8.002;2022-07-04T00:52:28;2.55;;;1.50;;
20423;SDS011;10371;49.042;8.002;2022-07-04T00:53:28;1.75;;;1.45;;
20423;SDS011;10371;49.042;8.002;2022-07-04T00:54:30;3.60;;;1.80;;
20423;SDS011;10371;49.042;8.002;2022-07-04T00:55:31;2.58;;;1.90;;
20423;SDS011;10371;49.042;8.002;2022-07-04T00:56:35;2.83;;;1.70;;
20423;SDS011;10371;49.042;8.002;2022-07-04T00:57:36;1.70;;;1.60;;
20423;SDS011;10371;49.042;8.002;2022-07-04T00:58:36;2.28;;;1.67;;
20423;SDS011;10371;49.042;8.002;2022-07-04T00:59:37;4.10;;;1.80;;
20423;SDS011;10371;49.042;8.002;2022-07-04T01:00:37;3.20;;;1.70;;
20423;SDS011;10371;49.042;8.002;2022-07-04T01:01:38;1.63;;;1.52;;
20423;SDS011;10371;49.042;8.002;2022-07-04T01:02:38;2.90;;;2.05;;
20423;SDS011;10371;49.042;8.002;2022-07-04T01:03:39;2.70;;;1.60;;
20423;SDS011;10371;49.042;8.002;2022-07-04T01:04:39;1.85;;;1.75;;
20423;SDS011;10371;49.042;8.002;2022-07-04T01:05:39;2.40;;;1.85;;
20423;SDS011;10371;49.042;8.002;2022-07-04T01:06:40;4.35;;;2.00;;
20423;SDS011;10371;49.042;8.002;2022-07-04T01:07:42;2.67;;;1.90;;
20423;SDS011;10371;49.042;8.002;2022-07-04T01:08:43;2.65;;;1.75;;
20423;SDS011;10371;49.042;8.002;2022-07-04T01:09:43;2.10;;;1.90;;
20423;SDS011;10371;49.042;8.002;2022-07-04T01:10:44;2.60;;;1.70;;
20423;SDS011;10371;49.042;8.002;2022-07-04T01:11:44;1.98;;;1.67;;
20423;SDS011;10371;49.042;8.002;2022-07-04T01:12:45;2.00;;;1.85;;
20423;SDS011;10371;49.042;8.002;2022-07-04T01:13:45;3.33;;;2.10;;
20423;SDS011;10371;49.042;8.002;2022-07-04T01:14:45;3.47;;;2.05;;
20423;SDS011;10371;49.042;8.002;2022-07-04T01:15:46;3.85;;;2.25;;
20423;SDS011;10371;49.042;8.002;2022-07-04T01:16:46;2.03;;;1.88;;
20423;SDS011;10371;49.042;8.002;2022-07-04T01:17:47;2.15;;;1.67;;
20423;SDS011;10371;49.042;8.002;2022-07-04T01:18:47;4.75;;;2.03;;
20423;SDS011;10371;49.042;8.002;2022-07-04T01:19:47;4.10;;;2.28;;
20423;SDS011;10371;49.042;8.002;2022-07-04T01:20:48;4.07;;;2.08;;
20423;SDS011;10371;49.042;8.002;2022-07-04T01:21:48;3.10;;;1.90;;
20423;SDS011;10371;49.042;8.002;2022-07-04T01:22:48;3.42;;;1.80;;
20423;SDS011;10371;49.042;8.002;2022-07-04T01:23:49;3.25;;;1.95;;
20423;SDS011;10371;49.042;8.002;2022-07-04T01:24:49;4.85;;;2.10;;
20423;SDS011;10371;49.042;8.002;2022-07-04T01:25:50;2.17;;;1.90;;
20423;SDS011;10371;49.042;8.002;2022-07-04T01:26:50;3.40;;;1.83;;
20423;SDS011;10371;49.042;8.002;2022-07-04T01:27:51;2.08;;;1.70;;
20423;SDS011;10371;49.042;8.002;2022-07-04T01:28:51;4.32;;;2.00;;
20423;SDS011;10371;49.042;8.002;2022-07-04T01:29:51;2.47;;;1.88;;
20423;SDS011;10371;49.042;8.002;2022-07-04T01:30:51;2.35;;;1.90;;
20423;SDS011;10371;49.042;8.002;2022-07-04T01:31:52;3.08;;;1.70;;
20423;SDS011;10371;49.042;8.002;2022-07-04T01:32:53;2.53;;;2.00;;
20423;SDS011;10371;49.042;8.002;2022-07-04T01:33:54;2.45;;;1.90;;
20423;SDS011;10371;49.042;8.002;2022-07-04T01:34:54;1.95;;;1.80;;
20423;SDS011;10371;49.042;8.002;2022-07-04T01:35:54;1.80;;;1.70;;
20423;SDS011;10371;49.042;8.002;2022-07-04T01:36:54;3.60;;;1.90;;
20423;SDS011;10371;49.042;8.002;2022-07-04T01:37:55;2.30;;;1.75;;
20423;SDS011;10371;49.042;8.002;2022-07-04T01:38:55;2.10;;;1.90;;
20423;SDS011;10371;49.042;8.002;2022-07-04T01:39:56;2.42;;;1.70;;
20423;SDS011;10371;49.042;8.002;2022-07-04T01:40:56;2.85;;;1.70;;
20423;SDS011;10371;49.042;8.002;2022-07-04T01:41:56;3.67;;;1.83;;
20423;SDS011;10371;49.042;8.002;2022-07-04T01:42:57;2.33;;;1.80;;
20423;SDS011;10371;49.042;8.002;2022-07-04T01:43:58;3.00;;;1.98;;
20423;SDS011;10371;49.042;8.002;2022-07-04T01:44:58;1.98;;;1.83;;
20423;SDS011;10371;49.042;8.002;2022-07-04T01:45:58;2.22;;;1.80;;
20423;SDS011;10371;49.042;8.002;2022-07-04T01:46:59;1.98;;;1.67;;
20423;SDS011;10371;49.042;8.002;2022-07-04T01:48:00;3.13;;;1.77;;
20423;SDS011;10371;49.042;8.002;2022-07-04T01:49:00;4.20;;;1.80;;
20423;SDS011;10371;49.042;8.002;2022-07-04T01:50:01;2.10;;;1.70;;
20423;SDS011;10371;49.042;8.002;2022-07-04T01:51:02;2.83;;;1.80;;
20423;SDS011;10371;49.042;8.002;2022-07-04T01:52:03;2.45;;;1.88;;
20423;SDS011;10371;49.042;8.002;2022-07-04T01:53:03;2.03;;;1.75;;
20423;SDS011;10371;49.042;8.002;2022-07-04T01:54:04;3.08;;;1.90;;
20423;SDS011;10371;49.042;8.002;2022-07-04T01:55:04;3.03;;;1.80;;
20423;SDS011;10371;49.042;8.002;2022-07-04T01:56:05;1.80;;;1.70;;
20423;SDS011;10371;49.042;8.002;2022-07-04T01:57:05;1.80;;;1.50;;
20423;SDS011;10371;49.042;8.002;2022-07-04T01:58:06;1.70;;;1.60;;
20423;SDS011;10371;49.042;8.002;2022-07-04T01:59:06;2.90;;;1.67;;
20423;SDS011;10371;49.042;8.002;2022-07-04T02:00:07;2.20;;;1.58;;
20423;SDS011;10371;49.042;8.002;2022-07-04T02:01:28;2.63;;;1.80;;
20423;SDS011;10371;49.042;8.002;2022-07-04T02:02:31;1.70;;;1.60;;
20423;SDS011;10371;49.042;8.002;2022-07-04T02:03:31;2.28;;;1.80;;
20423;SDS011;10371;49.042;8.002;2022-07-04T02:04:32;1.88;;;1.77;;
20423;SDS011;10371;49.042;8.002;2022-07-04T02:05:32;2.20;;;1.67;;
20423;SDS011;10371;49.042;8.002;2022-07-04T02:06:33;1.73;;;1.63;;
20423;SDS011;10371;49.042;8.002;2022-07-04T02:07:34;2.08;;;1.75;;
20423;SDS011;10371;49.042;8.002;2022-07-04T02:08:34;2.40;;;1.67;;
20423;SDS011;10371;49.042;8.002;2022-07-04T02:09:53;2.00;;;1.75;;
20423;SDS011;10371;49.042;8.002;2022-07-04T02:10:53;3.08;;;1.90;;
20423;SDS011;10371;49.042;8.002;2022-07-04T02:11:53;2.35;;;1.88;;
20423;SDS011;10371;49.042;8.002;2022-07-04T02:13:12;1.60;;;1.50;;
20423;SDS011;10371;49.042;8.002;2022-07-04T02:14:13;1.85;;;1.58;;
20423;SDS011;10371;49.042;8.002;2022-07-04T02:15:14;1.77;;;1.67;;
20423;SDS011;10371;49.042;8.002;2022-07-04T02:16:14;1.70;;;1.60;;
20423;SDS011;10371;49.042;8.002;2022-07-04T02:17:14;2.58;;;1.88;;
20423;SDS011;10371;49.042;8.002;2022-07-04T02:18:14;1.98;;;1.63;;
20423;SDS011;10371;49.042;8.002;2022-07-04T02:19:15;2.65;;;1.60;;
20423;SDS011;10371;49.042;8.002;2022-07-04T02:20:15;1.83;;;1.70;;
20423;SDS011;10371;49.042;8.002;2022-07-04T02:21:15;3.03;;;1.83;;
20423;SDS011;10371;49.042;8.002;2022-07-04T02:22:16;1.85;;;1.75;;
20423;SDS011;10371;49.042;8.002;2022-07-04T02:23:16;1.80;;;1.70;;
20423;SDS011;10371;49.042;8.002;2022-07-04T02:24:16;2.50;;;1.58;;
20423;SDS011;10371;49.042;8.002;2022-07-04T02:25:17;1.80;;;1.52;;
20423;SDS011;10371;49.042;8.002;2022-07-04T02:26:18;2.83;;;1.90;;
20423;SDS011;10371;49.042;8.002;2022-07-04T02:27:19;2.10;;;1.70;;
20423;SDS011;10371;49.042;8.002;2022-07-04T02:28:19;2.75;;;1.77;;
20423;SDS011;10371;49.042;8.002;2022-07-04T02:29:19;3.58;;;1.65;;
20423;SDS011;10371;49.042;8.002;2022-07-04T02:30:20;2.17;;;1.73;;
20423;SDS011;10371;49.042;8.002;2022-07-04T02:31:20;1.60;;;1.50;;
20423;SDS011;10371;49.042;8.002;2022-07-04T02:32:20;1.63;;;1.52;;
20423;SDS011;10371;49.042;8.002;2022-07-04T02:33:21;1.88;;;1.70;;
20423;SDS011;10371;49.042;8.002;2022-07-04T02:34:21;1.70;;;1.60;;
20423;SDS011;10371;49.042;8.002;2022-07-04T02:35:21;3.25;;;1.55;;
20423;SDS011;10371;49.042;8.002;2022-07-04T02:36:22;2.85;;;1.70;;
20423;SDS011;10371;49.042;8.002;2022-07-04T02:37:22;2.08;;;1.80;;
20423;SDS011;10371;49.042;8.002;2022-07-04T02:38:22;2.92;;;1.65;;
20423;SDS011;10371;49.042;8.002;2022-07-04T02:39:23;1.50;;;1.40;;
20423;SDS011;10371;49.042;8.002;2022-07-04T02:40:24;1.85;;;1.60;;
20423;SDS011;10371;49.042;8.002;2022-07-04T02:41:24;2.45;;;1.83;;
20423;SDS011;10371;49.042;8.002;2022-07-04T02:42:28;1.73;;;1.60;;
20423;SDS011;10371;49.042;8.002;2022-07-04T02:43:29;2.00;;;1.65;;
20423;SDS011;10371;49.042;8.002;2022-07-04T02:44:29;3.92;;;1.55;;
20423;SDS011;10371;49.042;8.002;2022-07-04T02:45:30;2.40;;;1.90;;
20423;SDS011;10371;49.042;8.002;2022-07-04T02:46:30;2.03;;;1.90;;
20423;SDS011;10371;49.042;8.002;2022-07-04T02:47:32;1.98;;;1.65;;
20423;SDS011;10371;49.042;8.002;2022-07-04T02:48:33;1.70;;;1.50;;
20423;SDS011;10371;49.042;8.002;2022-07-04T02:49:33;1.60;;;1.50;;
20423;SDS011;10371;49.042;8.002;2022-07-04T02:50:33;1.83;;;1.70;;
20423;SDS011;10371;49.042;8.002;2022-07-04T02:51:34;2.53;;;1.65;;
20423;SDS011;10371;49.042;8.002;2022-07-04T02:52:34;2.47;;;1.80;;
20423;SDS011;10371;49.042;8.002;2022-07-04T02:53:34;1.58;;;1.48;;
20423;SDS011;10371;49.042;8.002;2022-07-04T02:54:35;1.88;;;1.58;;
20423;SDS011;10371;49.042;8.002;2022-07-04T02:55:35;3.25;;;1.90;;
20423;SDS011;10371;49.042;8.002;2022-07-04T02:56:35;1.95;;;1.60;;
20423;SDS011;10371;49.042;8.002;2022-07-04T02:57:35;3.35;;;1.80;;
20423;SDS011;10371;49.042;8.002;2022-07-04T02:58:37;1.50;;;1.40;;
20423;SDS011;10371;49.042;8.002;2022-07-04T02:59:37;3.15;;;1.58;;
20423;SDS011;10371;49.042;8.002;2022-07-04T03:00:38;1.60;;;1.50;;
20423;SDS011;10371;49.042;8.002;2022-07-04T03:01:38;2.55;;;1.73;;
20423;SDS011;10371;49.042;8.002;2022-07-04T03:02:38;1.60;;;1.50;;
20423;SDS011;10371;49.042;8.002;2022-07-04T03:03:39;2.45;;;1.88;;
20423;SDS011;10371;49.042;8.002;2022-07-04T03:04:39;1.90;;;1.63;;
20423;SDS011;10371;49.042;8.002;2022-07-04T03:05:40;1.90;;;1.80;;
20423;SDS011;10371;49.042;8.002;2022-07-04T03:06:40;2.25;;;1.88;;
20423;SDS011;10371;49.042;8.002;2022-07-04T03:07:42;3.13;;;1.98;;
20423;SDS011;10371;49.042;8.002;2022-07-04T03:08:43;1.80;;;1.70;;
20423;SDS011;10371;49.042;8.002;2022-07-04T03:09:43;1.80;;;1.70;;
20423;SDS011;10371;49.042;8.002;2022-07-04T03:10:43;2.20;;;2.00;;
20423;SDS011;10371;49.042;8.002;2022-07-04T03:11:44;3.53;;;1.70;;
20423;SDS011;10371;49.042;8.002;2022-07-04T03:12:44;3.20;;;1.90;;
20423;SDS011;10371;49.042;8.002;2022-07-04T03:13:45;2.95;;;1.85;;
20423;SDS011;10371;49.042;8.002;2022-07-04T03:14:46;2.03;;;1.80;;
20423;SDS011;10371;49.042;8.002;2022-07-04T03:15:46;2.10;;;2.00;;
20423;SDS011;10371;49.042;8.002;2022-07-04T03:16:46;1.88;;;1.70;;
20423;SDS011;10371;49.042;8.002;2022-07-04T03:17:47;1.73;;;1.63;;
20423;SDS011;10371;49.042;8.002;2022-07-04T03:18:47;2.20;;;1.98;;
20423;SDS011;10371;49.042;8.002;2022-07-04T03:19:47;1.80;;;1.70;;
20423;SDS011;10371;49.042;8.002;2022-07-04T03:20:48;1.85;;;1.73;;
20423;SDS011;10371;49.042;8.002;2022-07-04T03:21:49;1.80;;;1.70;;
20423;SDS011;10371;49.042;8.002;2022-07-04T03:22:49;2.22;;;2.10;;
20423;SDS011;10371;49.042;8.002;2022-07-04T03:23:51;2.40;;;2.20;;
20423;SDS011;10371;49.042;8.002;2022-07-04T03:24:57;2.65;;;1.85;;
20423;SDS011;10371;49.042;8.002;2022-07-04T03:25:58;2.00;;;1.90;;
20423;SDS011;10371;49.042;8.002;2022-07-04T03:26:58;2.00;;;1.90;;
20423;SDS011;10371;49.042;8.002;2022-07-04T03:27:59;2.13;;;2.00;;
20423;SDS011;10371;49.042;8.002;2022-07-04T03:28:59;1.90;;;1.80;;
20423;SDS011;10371;49.042;8.002;2022-07-04T03:30:00;1.98;;;1.88;;
20423;SDS011;10371;49.042;8.002;2022-07-04T03:31:01;2.03;;;1.80;;
20423;SDS011;10371;49.042;8.002;2022-07-04T03:32:01;3.78;;;2.03;;
20423;SDS011;10371;49.042;8.002;2022-07-04T03:33:02;2.20;;;2.00;;
20423;SDS011;10371;49.042;8.002;2022-07-04T03:34:02;2.75;;;2.38;;
20423;SDS011;10371;49.042;8.002;2022-07-04T03:35:02;2.28;;;1.95;;
20423;SDS011;10371;49.042;8.002;2022-07-04T03:36:03;3.70;;;2.10;;
20423;SDS011;10371;49.042;8.002;2022-07-04T03:37:03;2.05;;;1.95;;
20423;SDS011;10371;49.042;8.002;2022-07-04T03:38:04;2.65;;;2.10;;
20423;SDS011;10371;49.042;8.002;2022-07-04T03:39:04;2.13;;;1.98;;
20423;SDS011;10371;49.042;8.002;2022-07-04T03:40:05;2.03;;;1.90;;
20423;SDS011;10371;49.042;8.002;2022-07-04T03:41:05;2.60;;;2.30;;
20423;SDS011;10371;49.042;8.002;2022-07-04T03:42:06;3.45;;;2.30;;
20423;SDS011;10371;49.042;8.002;2022-07-04T03:43:06;3.38;;;2.30;;
20423;SDS011;10371;49.042;8.002;2022-07-04T03:44:07;3.53;;;2.10;;
20423;SDS011;10371;49.042;8.002;2022-07-04T03:45:07;2.28;;;2.10;;
20423;SDS011;10371;49.042;8.002;2022-07-04T03:46:08;2.20;;;2.00;;
20423;SDS011;10371;49.042;8.002;2022-07-04T03:47:09;2.55;;;2.28;;
20423;SDS011;10371;49.042;8.002;2022-07-04T03:48:09;2.33;;;2.13;;
20423;SDS011;10371;49.042;8.002;2022-07-04T03:49:10;1.90;;;1.80;;
20423;SDS011;10371;49.042;8.002;2022-07-04T03:50:10;2.25;;;2.03;;
20423;SDS011;10371;49.042;8.002;2022-07-04T03:51:11;3.42;;;2.20;;
20423;SDS011;10371;49.042;8.002;2022-07-04T03:52:12;2.13;;;2.00;;
20423;SDS011;10371;49.042;8.002;2022-07-04T03:53:12;2.83;;;2.22;;
20423;SDS011;10371;49.042;8.002;2022-07-04T03:54:13;3.25;;;1.90;;
20423;SDS011;10371;49.042;8.002;2022-07-04T03:55:13;2.13;;;1.98;;
20423;SDS011;10371;49.042;8.002;2022-07-04T03:56:14;2.10;;;1.90;;
20423;SDS011;10371;49.042;8.002;2022-07-04T03:57:21;3.50;;;2.15;;
20423;SDS011;10371;49.042;8.002;2022-07-04T03:58:22;2.25;;;2.00;;
20423;SDS011;10371;49.042;8.002;2022-07-04T03:59:22;2.05;;;1.90;;
20423;SDS011;10371;49.042;8.002;2022-07-04T04:00:22;2.22;;;2.03;;
20423;SDS011;10371;49.042;8.002;2022-07-04T04:01:22;2.47;;;2.28;;
20423;SDS011;10371;49.042;8.002;2022-07-04T04:02:22;2.45;;;1.83;;
20423;SDS011;10371;49.042;8.002;2022-07-04T04:03:22;2.10;;;2.00;;
20423;SDS011;10371;49.042;8.002;2022-07-04T04:04:41;2.17;;;1.98;;
20423;SDS011;10371;49.042;8.002;2022-07-04T04:06:00;2.00;;;1.90;;
20423;SDS011;10371;49.042;8.002;2022-07-04T04:07:00;2.85;;;2.00;;
20423;SDS011;10371;49.042;8.002;2022-07-04T04:08:00;3.22;;;2.10;;
20423;SDS011;10371;49.042;8.002;2022-07-04T04:09:01;4.13;;;2.10;;
20423;SDS011;10371;49.042;8.002;2022-07-04T04:10:01;2.53;;;2.10;;
20423;SDS011;10371;49.042;8.002;2022-07-04T04:11:01;2.20;;;1.98;;
20423;SDS011;10371;49.042;8.002;2022-07-04T04:12:01;3.13;;;2.20;;
20423;SDS011;10371;49.042;8.002;2022-07-04T04:13:02;2.08;;;1.92;;
20423;SDS011;10371;49.042;8.002;2022-07-04T04:14:02;2.08;;;1.98;;
20423;SDS011;10371;49.042;8.002;2022-07-04T04:15:02;2.00;;;1.90;;
20423;SDS011;10371;49.042;8.002;2022-07-04T04:16:02;3.70;;;2.10;;
20423;SDS011;10371;49.042;8.002;2022-07-04T04:17:03;2.42;;;1.95;;
20423;SDS011;10371;49.042;8.002;2022-07-04T04:18:03;2.83;;;2.00;;
20423;SDS011;10371;49.042;8.002;2022-07-04T04:19:03;3.10;;;2.00;;
20423;SDS011;10371;49.042;8.002;2022-07-04T04:20:04;2.92;;;1.83;;
20423;SDS011;10371;49.042;8.002;2022-07-04T04:21:04;2.03;;;1.85;;
20423;SDS011;10371;49.042;8.002;2022-07-04T04:22:04;1.70;;;1.60;;
20423;SDS011;10371;49.042;8.002;2022-07-04T04:23:05;2.15;;;1.80;;
20423;SDS011;10371;49.042;8.002;2022-07-04T04:24:05;3.55;;;2.10;;
20423;SDS011;10371;49.042;8.002;2022-07-04T04:25:05;2.80;;;1.90;;
20423;SDS011;10371;49.042;8.002;2022-07-04T04:26:06;2.00;;;1.80;;
20423;SDS011;10371;49.042;8.002;2022-07-04T04:27:06;1.80;;;1.70;;
20423;SDS011;10371;49.042;8.002;2022-07-04T04:28:06;2.55;;;1.83;;
20423;SDS011;10371;49.042;8.002;2022-07-04T04:29:06;2.35;;;2.00;;
20423;SDS011;10371;49.042;8.002;2022-07-04T04:30:06;2.10;;;1.90;;
20423;SDS011;10371;49.042;8.002;2022-07-04T04:31:07;2.22;;;1.90;;
20423;SDS011;10371;49.042;8.002;2022-07-04T04:32:07;2.05;;;1.83;;
20423;SDS011;10371;49.042;8.002;2022-07-04T04:33:07;1.83;;;1.67;;
20423;SDS011;10371;49.042;8.002;2022-07-04T04:34:07;2.08;;;1.85;;
20423;SDS011;10371;49.042;8.002;2022-07-04T04:35:08;3.05;;;1.73;;
20423;SDS011;10371;49.042;8.002;2022-07-04T04:36:08;2.60;;;1.90;;
20423;SDS011;10371;49.042;8.002;2022-07-04T04:37:08;4.10;;;2.28;;
20423;SDS011;10371;49.042;8.002;2022-07-04T04:38:08;1.83;;;1.73;;
20423;SDS011;10371;49.042;8.002;2022-07-04T04:39:08;4.57;;;2.05;;
20423;SDS011;10371;49.042;8.002;2022-07-04T04:40:09;2.75;;;1.92;;
20423;SDS011;10371;49.042;8.002;2022-07-04T04:41:09;2.05;;;1.95;;
20423;SDS011;10371;49.042;8.002;2022-07-04T04:42:09;4.78;;;2.10;;
20423;SDS011;10371;49.042;8.002;2022-07-04T04:43:09;3.35;;;2.03;;
20423;SDS011;10371;49.042;8.002;2022-07-04T04:44:10;2.35;;;2.03;;
20423;SDS011;10371;49.042;8.002;2022-07-04T04:45:10;3.72;;;2.00;;
20423;SDS011;10371;49.042;8.002;2022-07-04T04:46:10;1.70;;;1.60;;
20423;SDS011;10371;49.042;8.002;2022-07-04T04:47:10;3.25;;;1.85;;
20423;SDS011;10371;49.042;8.002;2022-07-04T04:48:10;1.92;;;1.75;;
20423;SDS011;10371;49.042;8.002;2022-07-04T04:49:11;2.17;;;1.80;;
20423;SDS011;10371;49.042;8.002;2022-07-04T04:50:11;1.60;;;1.50;;
20423;SDS011;10371;49.042;8.002;2022-07-04T04:51:12;2.00;;;1.80;;
20423;SDS011;10371;49.042;8.002;2022-07-04T04:52:12;2.10;;;1.90;;
20423;SDS011;10371;49.042;8.002;2022-07-04T04:53:12;2.75;;;1.60;;
20423;SDS011;10371;49.042;8.002;2022-07-04T04:54:13;2.10;;;1.60;;
20423;SDS011;10371;49.042;8.002;2022-07-04T04:55:13;2.60;;;1.60;;
20423;SDS011;10371;49.042;8.002;2022-07-04T04:56:13;2.13;;;1.60;;
20423;SDS011;10371;49.042;8.002;2022-07-04T04:57:13;1.80;;;1.70;;
20423;SDS011;10371;49.042;8.002;2022-07-04T04:58:13;2.15;;;1.50;;
20423;SDS011;10371;49.042;8.002;2022-07-04T04:59:13;2.00;;;1.60;;
20423;SDS011;10371;49.042;8.002;2022-07-04T05:00:14;1.80;;;1.70;;
20423;SDS011;10371;49.042;8.002;2022-07-04T05:01:14;1.73;;;1.60;;
20423;SDS011;10371;49.042;8.002;2022-07-04T05:02:14;3.35;;;1.58;;
20423;SDS011;10371;49.042;8.002;2022-07-04T05:03:14;2.08;;;1.70;;
20423;SDS011;10371;49.042;8.002;2022-07-04T05:04:14;3.15;;;1.55;;
20423;SDS011;10371;49.042;8.002;2022-07-04T05:05:15;1.80;;;1.60;;
20423;SDS011;10371;49.042;8.002;2022-07-04T05:06:15;2.42;;;1.50;;
20423;SDS011;10371;49.042;8.002;2022-07-04T05:07:15;1.77;;;1.40;;
20423;SDS011;10371;49.042;8.002;2022-07-04T05:08:16;2.15;;;1.60;;
20423;SDS011;10371;49.042;8.002;2022-07-04T05:09:16;1.77;;;1.55;;
20423;SDS011;10371;49.042;8.002;2022-07-04T05:10:16;1.52;;;1.40;;
20423;SDS011;10371;49.042;8.002;2022-07-04T05:11:17;1.50;;;1.33;;
20423;SDS011;10371;49.042;8.002;2022-07-04T05:12:17;1.83;;;1.50;;
20423;SDS011;10371;49.042;8.002;2022-07-04T05:13:17;1.30;;;1.30;;
20423;SDS011;10371;49.042;8.002;2022-07-04T05:14:17;2.08;;;1.40;;
20423;SDS011;10371;49.042;8.002;2022-07-04T05:15:18;1.65;;;1.52;;
20423;SDS011;10371;49.042;8.002;2022-07-04T05:16:18;2.13;;;1.55;;
20423;SDS011;10371;49.042;8.002;2022-07-04T05:17:18;1.60;;;1.50;;
20423;SDS011;10371;49.042;8.002;2022-07-04T05:18:18;1.50;;;1.40;;
20423;SDS011;10371;49.042;8.002;2022-07-04T05:19:19;2.40;;;1.50;;
20423;SDS011;10371;49.042;8.002;2022-07-04T05:20:19;2.20;;;1.58;;
20423;SDS011;10371;49.042;8.002;2022-07-04T05:21:19;3.38;;;1.58;;
20423;SDS011;10371;49.042;8.002;2022-07-04T05:22:19;2.35;;;1.40;;
20423;SDS011;10371;49.042;8.002;2022-07-04T05:23:19;2.22;;;1.50;;
20423;SDS011;10371;49.042;8.002;2022-07-04T05:24:19;2.53;;;1.65;;
20423;SDS011;10371;49.042;8.002;2022-07-04T05:25:20;3.45;;;1.63;;
20423;SDS011;10371;49.042;8.002;2022-07-04T05:26:20;1.50;;;1.30;;
20423;SDS011;10371;49.042;8.002;2022-07-04T05:27:20;1.50;;;1.40;;
20423;SDS011;10371;49.042;8.002;2022-07-04T05:28:20;1.70;;;1.23;;
20423;SDS011;10371;49.042;8.002;2022-07-04T05:29:20;1.98;;;1.45;;
20423;SDS011;10371;49.042;8.002;2022-07-04T05:30:21;2.30;;;1.50;;
20423;SDS011;10371;49.042;8.002;2022-07-04T05:31:21;3.10;;;1.40;;
20423;SDS011;10371;49.042;8.002;2022-07-04T05:32:21;1.65;;;1.23;;
20423;SDS011;10371;49.042;8.002;2022-07-04T05:33:21;1.38;;;1.27;;
20423;SDS011;10371;49.042;8.002;2022-07-04T05:34:22;2.70;;;1.50;;
20423;SDS011;10371;49.042;8.002;2022-07-04T05:35:22;2.00;;;1.58;;
20423;SDS011;10371;49.042;8.002;2022-07-04T05:36:22;1.70;;;1.60;;
20423;SDS011;10371;49.042;8.002;2022-07-04T05:37:23;1.42;;;1.33;;
20423;SDS011;10371;49.042;8.002;2022-07-04T05:38:23;1.63;;;1.52;;
20423;SDS011;10371;49.042;8.002;2022-07-04T05:39:23;2.22;;;1.70;;
20423;SDS011;10371;49.042;8.002;2022-07-04T05:40:23;1.50;;;1.40;;
20423;SDS011;10371;49.042;8.002;2022-07-04T05:41:24;2.83;;;1.40;;
20423;SDS011;10371;49.042;8.002;2022-07-04T05:42:25;2.72;;;1.58;;
20423;SDS011;10371;49.042;8.002;2022-07-04T05:43:25;4.30;;;1.77;;
20423;SDS011;10371;49.042;8.002;2022-07-04T05:44:25;1.98;;;1.50;;
20423;SDS011;10371;49.042;8.002;2022-07-04T05:45:26;2.03;;;1.73;;
20423;SDS011;10371;49.042;8.002;2022-07-04T05:46:26;2.78;;;1.52;;
20423;SDS011;10371;49.042;8.002;2022-07-04T05:47:26;2.42;;;1.50;;
20423;SDS011;10371;49.042;8.002;2022-07-04T05:48:26;3.60;;;1.40;;
20423;SDS011;10371;49.042;8.002;2022-07-04T05:49:27;2.63;;;1.50;;
20423;SDS011;10371;49.042;8.002;2022-07-04T05:50:27;2.50;;;1.70;;
20423;SDS011;10371;49.042;8.002;2022-07-04T05:51:27;1.40;;;1.30;;
20423;SDS011;10371;49.042;8.002;2022-07-04T05:52:27;2.33;;;1.60;;
20423;SDS011;10371;49.042;8.002;2022-07-04T05:53:27;2.10;;;1.45;;
20423;SDS011;10371;49.042;8.002;2022-07-04T05:54:27;1.55;;;1.38;;
20423;SDS011;10371;49.042;8.002;2022-07-04T05:55:28;1.63;;;1.40;;
20423;SDS011;10371;49.042;8.002;2022-07-04T05:56:28;1.73;;;1.52;;
20423;SDS011;10371;49.042;8.002;2022-07-04T05:57:28;1.55;;;1.45;;
20423;SDS011;10371;49.042;8.002;2022-07-04T05:58:28;2.38;;;1.23;;
20423;SDS011;10371;49.042;8.002;2022-07-04T05:59:28;2.28;;;1.70;;
20423;SDS011;10371;49.042;8.002;2022-07-04T06:00:29;1.60;;;1.45;;
20423;SDS011;10371;49.042;8.002;2022-07-04T06:01:29;1.80;;;1.60;;
20423;SDS011;10371;49.042;8.002;2022-07-04T06:02:29;1.50;;;1.40;;
20423;SDS011;10371;49.042;8.002;2022-07-04T06:03:29;2.17;;;1.40;;
20423;SDS011;10371;49.042;8.002;2022-07-04T06:04:29;1.80;;;1.50;;
20423;SDS011;10371;49.042;8.002;2022-07-04T06:05:30;2.97;;;1.77;;